createdAt,value
2018-05-03T00:00:34.268Z,987.98
2018-05-03T00:01:34.444Z,987.96
2018-05-03T00:02:34.617Z,987.93
2018-05-03T00:03:34.795Z,987.93
2018-05-03T00:04:34.975Z,987.95
2018-05-03T00:05:35.150Z,987.97
2018-05-03T00:06:35.332Z,987.94
2018-05-03T00:07:35.512Z,987.93
2018-05-03T00:08:35.684Z,987.97
2018-05-03T00:09:35.859Z,987.96
2018-05-03T00:10:36.037Z,987.94
2018-05-03T00:11:36.217Z,987.96
2018-05-03T00:12:36.389Z,987.99
2018-05-03T00:13:36.569Z,987.98
2018-05-03T00:14:36.868Z,987.98
2018-05-03T00:15:36.848Z,988.03
2018-05-03T00:16:40.225Z,987.96
2018-05-03T00:17:37.263Z,988.01
2018-05-03T00:18:37.699Z,988.03
2018-05-03T00:19:37.537Z,988.02
2018-05-03T00:20:37.720Z,988.00
2018-05-03T00:21:37.902Z,987.97
2018-05-03T00:22:38.084Z,987.99
2018-05-03T00:23:38.266Z,987.97
2018-05-03T00:24:38.461Z,988.01
2018-05-03T00:25:38.638Z,988.00
2018-05-03T00:26:38.819Z,988.04
2018-05-03T00:27:38.995Z,988.02
2018-05-03T00:28:39.173Z,988.03
2018-05-03T00:29:39.356Z,988.00
2018-05-03T00:30:39.537Z,988.06
2018-05-03T00:31:39.723Z,988.02
2018-05-03T00:32:39.899Z,988.03
2018-05-03T00:33:40.073Z,988.05
2018-05-03T00:34:40.258Z,988.08
2018-05-03T00:35:40.434Z,988.08
2018-05-03T00:36:40.621Z,988.07
2018-05-03T00:37:40.881Z,988.06
2018-05-03T00:38:40.976Z,988.08
2018-05-03T00:39:41.137Z,988.06
2018-05-03T00:40:41.311Z,988.08
2018-05-03T00:41:41.488Z,988.08
2018-05-03T00:42:41.663Z,988.08
2018-05-03T00:43:41.839Z,988.14
2018-05-03T00:44:42.025Z,988.07
2018-05-03T00:45:42.206Z,988.09
2018-05-03T00:46:42.384Z,988.15
2018-05-03T00:47:42.563Z,988.14
2018-05-03T00:48:42.745Z,988.14
2018-05-03T00:49:42.924Z,988.15
2018-05-03T00:50:43.102Z,988.12
2018-05-03T00:51:43.281Z,988.19
2018-05-03T00:52:43.457Z,988.14
2018-05-03T00:53:43.636Z,988.16
2018-05-03T00:54:43.808Z,988.15
2018-05-03T00:55:43.988Z,988.13
2018-05-03T00:56:44.163Z,988.15
2018-05-03T00:57:44.341Z,988.19
2018-05-03T00:58:44.522Z,988.22
2018-05-03T00:59:44.700Z,988.24
2018-05-03T01:00:44.881Z,988.29
2018-05-03T01:01:45.062Z,988.34
2018-05-03T01:02:45.238Z,988.34
2018-05-03T01:03:45.413Z,988.37
2018-05-03T01:04:45.589Z,988.39
2018-05-03T01:05:45.772Z,988.42
2018-05-03T01:06:45.958Z,988.42
2018-05-03T01:07:46.134Z,988.45
2018-05-03T01:08:46.309Z,988.44
2018-05-03T01:09:46.487Z,988.46
2018-05-03T01:10:46.666Z,988.45
2018-05-03T01:11:46.844Z,988.47
2018-05-03T01:12:47.018Z,988.48
2018-05-03T01:13:47.220Z,988.50
2018-05-03T01:14:47.404Z,988.52
2018-05-03T01:15:47.576Z,988.51
2018-05-03T01:16:47.755Z,988.49
2018-05-03T01:17:47.942Z,988.52
2018-05-03T01:18:48.123Z,988.53
2018-05-03T01:19:48.303Z,988.52
2018-05-03T01:20:48.475Z,988.50
2018-05-03T01:21:48.653Z,988.49
2018-05-03T01:22:48.828Z,988.45
2018-05-03T01:23:48.998Z,988.46
2018-05-03T01:24:49.169Z,988.44
2018-05-03T01:25:49.350Z,988.42
2018-05-03T01:26:49.530Z,988.42
2018-05-03T01:27:49.711Z,988.40
2018-05-03T01:28:49.891Z,988.39
2018-05-03T01:29:50.072Z,988.42
2018-05-03T01:30:50.254Z,988.45
2018-05-03T01:31:50.423Z,988.42
2018-05-03T01:32:50.601Z,988.44
2018-05-03T01:33:50.778Z,988.48
2018-05-03T01:34:50.957Z,988.52
2018-05-03T01:35:51.137Z,988.50
2018-05-03T01:36:51.321Z,988.54
2018-05-03T01:37:51.504Z,988.52
2018-05-03T01:38:51.684Z,988.48
2018-05-03T01:39:51.855Z,988.46
2018-05-03T01:40:52.033Z,988.45
2018-05-03T01:41:52.210Z,988.45
2018-05-03T01:42:52.401Z,988.47
2018-05-03T01:43:52.577Z,988.42
2018-05-03T01:44:52.755Z,988.45
2018-05-03T01:45:52.933Z,988.46
2018-05-03T01:46:53.110Z,988.51
2018-05-03T01:47:53.298Z,988.50
2018-05-03T01:48:53.465Z,988.54
2018-05-03T01:49:53.646Z,988.53
2018-05-03T01:50:53.816Z,988.55
2018-05-03T01:51:54.004Z,988.53
2018-05-03T01:52:54.182Z,988.53
2018-05-03T01:53:54.352Z,988.53
2018-05-03T01:54:54.529Z,988.52
2018-05-03T01:55:54.705Z,988.52
2018-05-03T01:56:54.879Z,988.53
2018-05-03T01:57:55.053Z,988.50
2018-05-03T01:58:55.228Z,988.49
2018-05-03T01:59:55.409Z,988.44
2018-05-03T02:00:55.586Z,988.47
2018-05-03T02:01:55.766Z,988.49
2018-05-03T02:02:55.948Z,988.47
2018-05-03T02:03:56.126Z,988.48
2018-05-03T02:04:56.304Z,988.50
2018-05-03T02:05:56.486Z,988.43
2018-05-03T02:06:56.667Z,988.49
2018-05-03T02:07:56.841Z,988.44
2018-05-03T02:08:57.024Z,988.44
2018-05-03T02:09:57.210Z,988.42
2018-05-03T02:10:57.391Z,988.44
2018-05-03T02:11:57.573Z,988.47
2018-05-03T02:12:57.759Z,988.50
2018-05-03T02:13:57.936Z,988.52
2018-05-03T02:14:58.156Z,988.51
2018-05-03T02:15:58.239Z,988.52
2018-05-03T02:16:58.393Z,988.51
2018-05-03T02:17:58.578Z,988.52
2018-05-03T02:18:58.753Z,988.56
2018-05-03T02:19:58.945Z,988.53
2018-05-03T02:20:59.123Z,988.55
2018-05-03T02:21:59.301Z,988.52
2018-05-03T02:22:59.483Z,988.52
2018-05-03T02:23:59.664Z,988.53
2018-05-03T02:24:59.845Z,988.47
2018-05-03T02:26:00.022Z,988.50
2018-05-03T02:27:00.188Z,988.49
2018-05-03T02:28:00.368Z,988.47
2018-05-03T02:29:00.543Z,988.48
2018-05-03T02:30:00.726Z,988.50
2018-05-03T02:31:00.896Z,988.48
2018-05-03T02:32:01.075Z,988.47
2018-05-03T02:33:01.255Z,988.46
2018-05-03T02:34:01.432Z,988.52
2018-05-03T02:35:01.608Z,988.53
2018-05-03T02:36:01.788Z,988.55
2018-05-03T02:37:01.966Z,988.57
2018-05-03T02:38:02.135Z,988.57
2018-05-03T02:39:02.313Z,988.57
2018-05-03T02:40:02.498Z,988.62
2018-05-03T02:41:02.677Z,988.61
2018-05-03T02:42:02.848Z,988.63
2018-05-03T02:43:03.025Z,988.65
2018-05-03T02:44:03.209Z,988.62
2018-05-03T02:45:03.395Z,988.61
2018-05-03T02:46:03.577Z,988.59
2018-05-03T02:47:03.747Z,988.60
2018-05-03T02:48:03.920Z,988.58
2018-05-03T02:49:04.100Z,988.56
2018-05-03T02:50:04.272Z,988.59
2018-05-03T02:51:04.457Z,988.61
2018-05-03T02:52:04.643Z,988.64
2018-05-03T02:53:04.812Z,988.64
2018-05-03T02:54:04.992Z,988.66
2018-05-03T02:55:05.172Z,988.69
2018-05-03T02:56:05.351Z,988.67
2018-05-03T02:57:05.527Z,988.66
2018-05-03T02:58:05.708Z,988.68
2018-05-03T02:59:05.882Z,988.74
2018-05-03T03:00:06.065Z,988.70
2018-05-03T03:01:06.254Z,988.73
2018-05-03T03:02:06.430Z,988.72
2018-05-03T03:03:06.610Z,988.74
2018-05-03T03:04:06.795Z,988.75
2018-05-03T03:05:06.969Z,988.79
2018-05-03T03:06:07.142Z,988.78
2018-05-03T03:07:07.317Z,988.78
2018-05-03T03:08:07.497Z,988.81
2018-05-03T03:09:07.676Z,988.80
2018-05-03T03:10:07.856Z,988.78
2018-05-03T03:11:08.043Z,988.80
2018-05-03T03:12:08.225Z,988.73
2018-05-03T03:13:08.405Z,988.71
2018-05-03T03:14:08.588Z,988.68
2018-05-03T03:15:08.768Z,988.67
2018-05-03T03:16:08.945Z,988.66
2018-05-03T03:17:09.129Z,988.61
2018-05-03T03:18:09.312Z,988.57
2018-05-03T03:19:09.496Z,988.58
2018-05-03T03:20:09.677Z,988.57
2018-05-03T03:21:09.853Z,988.55
2018-05-03T03:22:10.049Z,988.53
2018-05-03T03:23:10.226Z,988.56
2018-05-03T03:24:10.404Z,988.53
2018-05-03T03:25:10.585Z,988.55
2018-05-03T03:26:10.762Z,988.58
2018-05-03T03:27:10.955Z,988.58
2018-05-03T03:28:11.125Z,988.56
2018-05-03T03:29:11.303Z,988.57
2018-05-03T03:30:11.482Z,988.58
2018-05-03T03:31:11.660Z,988.55
2018-05-03T03:32:11.836Z,988.59
2018-05-03T03:33:12.013Z,988.56
2018-05-03T03:34:12.191Z,988.56
2018-05-03T03:35:12.368Z,988.57
2018-05-03T03:36:12.549Z,988.59
2018-05-03T03:37:12.727Z,988.61
2018-05-03T03:38:12.906Z,988.60
2018-05-03T03:39:13.086Z,988.63
2018-05-03T03:40:16.840Z,988.65
2018-05-03T03:41:15.535Z,988.64
2018-05-03T03:42:17.211Z,988.67
2018-05-03T03:43:15.462Z,988.71
2018-05-03T03:44:15.471Z,988.72
2018-05-03T03:45:16.578Z,988.71
2018-05-03T03:46:19.079Z,988.72
2018-05-03T03:47:17.567Z,988.71
2018-05-03T03:48:15.350Z,988.72
2018-05-03T03:49:14.970Z,988.74
2018-05-03T03:50:15.897Z,988.71
2018-05-03T03:51:15.194Z,988.69
2018-05-03T03:52:15.371Z,988.76
2018-05-03T03:53:15.617Z,988.76
2018-05-03T03:54:15.726Z,988.73
2018-05-03T03:55:15.902Z,988.74
2018-05-03T03:56:16.087Z,988.74
2018-05-03T03:57:16.259Z,988.74
2018-05-03T03:58:16.436Z,988.70
2018-05-03T03:59:16.612Z,988.67
2018-05-03T04:00:16.797Z,988.65
2018-05-03T04:01:16.971Z,988.65
2018-05-03T04:02:17.149Z,988.66
2018-05-03T04:03:17.326Z,988.69
2018-05-03T04:04:17.509Z,988.63
2018-05-03T04:05:17.689Z,988.69
2018-05-03T04:06:17.869Z,988.69
2018-05-03T04:07:18.057Z,988.71
2018-05-03T04:08:18.221Z,988.72
2018-05-03T04:09:18.448Z,988.70
2018-05-03T04:10:18.583Z,988.76
2018-05-03T04:11:18.750Z,988.77
2018-05-03T04:12:19.056Z,988.73
2018-05-03T04:13:19.240Z,988.78
2018-05-03T04:14:19.167Z,988.75
2018-05-03T04:15:19.343Z,988.80
2018-05-03T04:16:19.542Z,988.82
2018-05-03T04:17:19.740Z,988.83
2018-05-03T04:18:19.908Z,988.87
2018-05-03T04:19:20.081Z,988.89
2018-05-03T04:20:20.260Z,988.95
2018-05-03T04:21:20.467Z,988.93
2018-05-03T04:22:20.564Z,988.95
2018-05-03T04:23:20.725Z,988.93
2018-05-03T04:24:20.897Z,988.98
2018-05-03T04:25:21.075Z,988.95
2018-05-03T04:26:21.251Z,989.02
2018-05-03T04:27:21.475Z,989.00
2018-05-03T04:28:21.542Z,989.07
2018-05-03T04:29:21.721Z,989.03
2018-05-03T04:30:21.909Z,989.02
2018-05-03T04:31:22.105Z,989.01
2018-05-03T04:32:22.304Z,989.06
2018-05-03T04:33:22.482Z,989.06
2018-05-03T04:34:22.667Z,989.09
2018-05-03T04:35:22.879Z,989.12
2018-05-03T04:36:23.053Z,989.11
2018-05-03T04:37:23.236Z,989.19
2018-05-03T04:38:25.101Z,989.19
2018-05-03T04:39:25.648Z,989.24
2018-05-03T04:40:23.979Z,989.23
2018-05-03T04:41:24.442Z,989.27
2018-05-03T04:42:24.953Z,989.32
2018-05-03T04:43:27.901Z,989.31
2018-05-03T04:44:24.490Z,989.34
2018-05-03T04:45:24.683Z,989.37
2018-05-03T04:46:24.876Z,989.33
2018-05-03T04:47:25.156Z,989.37
2018-05-03T04:48:25.293Z,989.34
2018-05-03T04:49:25.413Z,989.40
2018-05-03T04:50:25.593Z,989.44
2018-05-03T04:51:25.767Z,989.45
2018-05-03T04:52:25.953Z,989.46
2018-05-03T04:53:26.134Z,989.52
2018-05-03T04:54:26.310Z,989.55
2018-05-03T04:55:26.491Z,989.59
2018-05-03T04:56:26.667Z,989.62
2018-05-03T04:57:26.865Z,989.66
2018-05-03T04:58:27.039Z,989.65
2018-05-03T04:59:27.221Z,989.70
2018-05-03T05:00:27.407Z,989.70
2018-05-03T05:01:27.596Z,989.71
2018-05-03T05:02:27.807Z,989.71
2018-05-03T05:03:28.061Z,989.71
2018-05-03T05:04:28.146Z,989.71
2018-05-03T05:05:28.370Z,989.76
2018-05-03T05:06:28.464Z,989.76
2018-05-03T05:07:28.671Z,989.77
2018-05-03T05:08:28.886Z,989.82
2018-05-03T05:09:29.079Z,989.86
2018-05-03T05:10:29.353Z,989.82
2018-05-03T05:11:29.469Z,989.85
2018-05-03T05:12:29.596Z,989.84
2018-05-03T05:13:29.715Z,989.87
2018-05-03T05:14:29.841Z,989.88
2018-05-03T05:15:29.969Z,989.85
2018-05-03T05:16:30.090Z,989.87
2018-05-03T05:17:30.219Z,989.82
2018-05-03T05:18:30.393Z,989.83
2018-05-03T05:19:30.517Z,989.85
2018-05-03T05:20:30.631Z,989.84
2018-05-03T05:21:30.872Z,989.84
2018-05-03T05:22:30.974Z,989.84
2018-05-03T05:23:31.064Z,989.86
2018-05-03T05:24:31.833Z,989.90
2018-05-03T05:25:31.389Z,989.90
2018-05-03T05:26:31.577Z,989.91
2018-05-03T05:27:31.760Z,989.95
2018-05-03T05:28:31.937Z,989.98
2018-05-03T05:29:32.111Z,989.98
2018-05-03T05:30:32.291Z,989.97
2018-05-03T05:31:32.493Z,990.02
2018-05-03T05:32:32.675Z,990.08
2018-05-03T05:33:32.877Z,990.05
2018-05-03T05:34:33.050Z,990.07
2018-05-03T05:35:33.218Z,990.12
2018-05-03T05:36:33.403Z,990.12
2018-05-03T05:37:33.579Z,990.18
2018-05-03T05:38:33.840Z,990.19
2018-05-03T05:39:33.951Z,990.19
2018-05-03T05:40:34.122Z,990.18
2018-05-03T05:41:34.303Z,990.22
2018-05-03T05:42:34.471Z,990.25
2018-05-03T05:43:34.660Z,990.28
2018-05-03T05:44:34.841Z,990.26
2018-05-03T05:45:35.027Z,990.29
2018-05-03T05:46:35.196Z,990.23
2018-05-03T05:47:35.382Z,990.29
2018-05-03T05:48:35.620Z,990.30
2018-05-03T05:49:35.674Z,990.30
2018-05-03T05:50:35.850Z,990.29
2018-05-03T05:51:36.027Z,990.33
2018-05-03T05:52:36.203Z,990.38
2018-05-03T05:53:36.382Z,990.39
2018-05-03T05:54:36.566Z,990.42
2018-05-03T05:55:36.749Z,990.42
2018-05-03T05:56:36.943Z,990.41
2018-05-03T05:57:37.130Z,990.46
2018-05-03T05:58:40.473Z,990.47
2018-05-03T05:59:39.717Z,990.44
2018-05-03T06:00:40.006Z,990.49
2018-05-03T06:01:39.210Z,990.48
2018-05-03T06:02:37.949Z,990.49
2018-05-03T06:03:39.614Z,990.51
2018-05-03T06:04:41.031Z,990.51
2018-05-03T06:05:42.831Z,990.57
2018-05-03T06:06:39.511Z,990.56
2018-05-03T06:07:38.840Z,990.54
2018-05-03T06:08:39.017Z,990.55
2018-05-03T06:09:39.195Z,990.59
2018-05-03T06:10:39.375Z,990.58
2018-05-03T06:11:39.557Z,990.64
2018-05-03T06:12:39.726Z,990.58
2018-05-03T06:13:39.908Z,990.62
2018-05-03T06:14:40.091Z,990.67
2018-05-03T06:15:40.278Z,990.70
2018-05-03T06:16:40.461Z,990.71
2018-05-03T06:17:40.645Z,990.70
2018-05-03T06:18:40.833Z,990.73
2018-05-03T06:19:41.019Z,990.76
2018-05-03T06:20:41.196Z,990.81
2018-05-03T06:21:41.377Z,990.82
2018-05-03T06:22:41.549Z,990.89
2018-05-03T06:23:41.727Z,990.85
2018-05-03T06:24:41.908Z,990.84
2018-05-03T06:25:42.081Z,990.83
2018-05-03T06:26:42.261Z,990.88
2018-05-03T06:27:42.438Z,990.87
2018-05-03T06:28:42.624Z,990.88
2018-05-03T06:29:42.820Z,990.88
2018-05-03T06:30:42.999Z,990.94
2018-05-03T06:31:43.177Z,990.91
2018-05-03T06:32:43.355Z,990.89
2018-05-03T06:33:43.538Z,990.92
2018-05-03T06:34:43.719Z,990.89
2018-05-03T06:35:43.897Z,990.94
2018-05-03T06:36:44.078Z,990.96
2018-05-03T06:37:44.271Z,991.06
2018-05-03T06:38:44.494Z,991.06
2018-05-03T06:39:44.645Z,991.21
2018-05-03T06:40:44.820Z,991.07
2018-05-03T06:41:45.001Z,991.85
2018-05-03T06:42:45.182Z,992.08
2018-05-03T06:43:45.371Z,992.04
2018-05-03T06:44:45.830Z,992.18
2018-05-03T06:45:45.874Z,992.25
2018-05-03T06:46:46.200Z,992.27
2018-05-03T06:47:46.136Z,992.24
2018-05-03T06:48:46.322Z,992.32
2018-05-03T06:49:46.521Z,992.14
2018-05-03T06:50:46.705Z,992.19
2018-05-03T06:51:46.896Z,992.18
2018-05-03T06:52:47.090Z,992.19
2018-05-03T06:53:47.264Z,992.24
2018-05-03T06:54:47.579Z,992.25
2018-05-03T06:55:47.651Z,992.40
2018-05-03T06:56:47.837Z,992.32
2018-05-03T06:57:48.023Z,992.29
2018-05-03T06:58:48.205Z,992.39
2018-05-03T06:59:48.393Z,992.40
2018-05-03T07:00:48.588Z,992.10
2018-05-03T07:01:48.776Z,992.43
2018-05-03T07:02:48.989Z,992.54
2018-05-03T07:03:49.162Z,991.76
2018-05-03T07:04:49.349Z,992.32
2018-05-03T07:05:49.546Z,991.96
2018-05-03T07:06:49.739Z,992.06
2018-05-03T07:07:49.930Z,991.91
2018-05-03T07:08:50.108Z,991.84
2018-05-03T07:09:50.332Z,992.67
2018-05-03T07:10:50.483Z,992.06
2018-05-03T07:11:50.682Z,991.73
2018-05-03T07:12:50.874Z,991.67
2018-05-03T07:13:51.079Z,991.91
2018-05-03T07:14:51.375Z,991.86
2018-05-03T07:15:51.434Z,991.89
2018-05-03T07:16:51.623Z,991.85
2018-05-03T07:17:51.821Z,991.81
2018-05-03T07:18:52.037Z,992.22
2018-05-03T07:19:52.216Z,992.71
2018-05-03T07:20:52.446Z,992.33
2018-05-03T07:21:52.637Z,991.99
2018-05-03T07:22:52.825Z,991.95
2018-05-03T07:23:53.032Z,991.90
2018-05-03T07:24:53.210Z,992.52
2018-05-03T07:25:53.439Z,992.74
2018-05-03T07:26:53.656Z,993.05
2018-05-03T07:27:53.860Z,993.03
2018-05-03T07:28:54.091Z,992.96
2018-05-03T07:29:54.296Z,992.94
2018-05-03T07:30:54.473Z,992.76
2018-05-03T07:31:54.659Z,992.13
2018-05-03T07:32:55.116Z,992.53
2018-05-03T07:33:55.241Z,992.13
2018-05-03T07:34:55.386Z,992.06
2018-05-03T07:35:55.612Z,992.10
2018-05-03T07:36:55.804Z,992.19
2018-05-03T07:37:55.934Z,992.06
2018-05-03T07:38:56.237Z,992.00
2018-05-03T07:39:56.032Z,992.07
2018-05-03T07:40:56.495Z,991.90
2018-05-03T07:41:56.725Z,991.82
2018-05-03T07:42:56.866Z,991.84
2018-05-03T07:43:56.931Z,991.83
2018-05-03T07:44:57.515Z,991.76
2018-05-03T07:45:57.418Z,991.76
2018-05-03T07:46:57.392Z,991.77
2018-05-03T07:47:58.490Z,991.77
2018-05-03T07:48:58.107Z,991.76
2018-05-03T07:49:58.279Z,991.82
2018-05-03T07:50:58.287Z,991.81
2018-05-03T07:51:58.345Z,991.87
2018-05-03T07:52:58.670Z,991.81
2018-05-03T07:53:58.632Z,991.85
2018-05-03T07:54:58.932Z,991.80
2018-05-03T07:55:59.005Z,991.82
2018-05-03T07:56:59.102Z,991.82
2018-05-03T07:57:59.308Z,991.82
2018-05-03T07:58:59.268Z,991.85
2018-05-03T07:59:59.462Z,991.85
2018-05-03T08:00:59.648Z,991.86
2018-05-03T08:01:59.845Z,991.86
2018-05-03T08:03:00.033Z,991.91
2018-05-03T08:04:00.220Z,991.93
2018-05-03T08:05:00.397Z,991.96
2018-05-03T08:06:00.580Z,991.97
2018-05-03T08:07:00.769Z,991.98
2018-05-03T08:08:00.967Z,991.99
2018-05-03T08:09:01.148Z,991.98
2018-05-03T08:10:01.326Z,992.00
2018-05-03T08:11:02.782Z,991.95
2018-05-03T08:12:01.716Z,991.95
2018-05-03T08:13:01.764Z,991.94
2018-05-03T08:14:03.296Z,991.98
2018-05-03T08:15:03.450Z,991.97
2018-05-03T08:16:02.755Z,991.98
2018-05-03T08:17:02.626Z,991.97
2018-05-03T08:18:02.843Z,991.99
2018-05-03T08:19:02.891Z,992.01
2018-05-03T08:20:03.157Z,992.04
2018-05-03T08:21:03.269Z,992.03
2018-05-03T08:22:03.440Z,992.04
2018-05-03T08:23:03.702Z,992.10
2018-05-03T08:24:04.060Z,992.04
2018-05-03T08:25:03.909Z,992.09
2018-05-03T08:26:03.995Z,992.13
2018-05-03T08:27:04.322Z,992.16
2018-05-03T08:28:04.536Z,992.19
2018-05-03T08:29:04.620Z,992.14
2018-05-03T08:30:04.665Z,992.25
2018-05-03T08:31:04.652Z,992.15
2018-05-03T08:32:04.897Z,992.18
2018-05-03T08:33:05.057Z,992.11
2018-05-03T08:34:05.233Z,992.12
2018-05-03T08:35:05.411Z,992.14
2018-05-03T08:36:05.598Z,992.12
2018-05-03T08:37:05.795Z,992.14
2018-05-03T08:38:06.215Z,992.14
2018-05-03T08:39:07.533Z,992.13
2018-05-03T08:40:06.600Z,992.18
2018-05-03T08:41:06.567Z,992.22
2018-05-03T08:42:06.845Z,992.23
2018-05-03T08:43:06.917Z,992.29
2018-05-03T08:44:07.113Z,992.35
2018-05-03T08:45:07.283Z,992.33
2018-05-03T08:46:07.462Z,992.40
2018-05-03T08:47:07.651Z,992.49
2018-05-03T08:48:07.847Z,992.47
2018-05-03T08:49:08.054Z,992.91
2018-05-03T08:50:08.231Z,992.82
2018-05-03T08:51:08.423Z,993.00
2018-05-03T08:52:08.597Z,992.88
2018-05-03T08:53:08.782Z,993.41
2018-05-03T08:54:08.971Z,992.63
2018-05-03T08:55:09.152Z,992.89
2018-05-03T08:56:09.330Z,992.67
2018-05-03T08:57:10.593Z,992.62
2018-05-03T08:58:09.683Z,992.63
2018-05-03T08:59:09.883Z,993.05
2018-05-03T09:00:10.054Z,992.60
2018-05-03T09:01:10.247Z,992.61
2018-05-03T09:02:11.102Z,992.58
2018-05-03T09:03:10.597Z,992.54
2018-05-03T09:04:10.894Z,992.56
2018-05-03T09:05:11.246Z,992.53
2018-05-03T09:06:11.641Z,992.65
2018-05-03T09:07:11.327Z,992.64
2018-05-03T09:08:11.516Z,992.87
2018-05-03T09:09:11.781Z,992.78
2018-05-03T09:10:12.023Z,992.67
2018-05-03T09:11:11.964Z,992.74
2018-05-03T09:12:12.154Z,992.69
2018-05-03T09:13:12.406Z,992.73
2018-05-03T09:14:12.468Z,992.75
2018-05-03T09:15:13.054Z,992.73
2018-05-03T09:16:13.224Z,992.61
2018-05-03T09:17:13.085Z,992.62
2018-05-03T09:18:13.720Z,992.59
2018-05-03T09:19:13.831Z,992.60
2018-05-03T09:20:14.085Z,992.57
2018-05-03T09:21:14.493Z,992.61
2018-05-03T09:22:14.951Z,992.59
2018-05-03T09:23:14.157Z,992.62
2018-05-03T09:24:14.513Z,992.83
2018-05-03T09:25:14.869Z,992.65
2018-05-03T09:26:15.496Z,992.64
2018-05-03T09:27:17.399Z,992.63
2018-05-03T09:28:15.454Z,992.60
2018-05-03T09:29:15.590Z,992.63
2018-05-03T09:30:17.449Z,992.68
2018-05-03T09:31:15.597Z,992.71
2018-05-03T09:32:15.797Z,992.69
2018-05-03T09:33:15.974Z,992.65
2018-05-03T09:34:16.211Z,992.71
2018-05-03T09:35:16.396Z,992.71
2018-05-03T09:36:16.602Z,992.71
2018-05-03T09:37:16.784Z,992.81
2018-05-03T09:38:16.981Z,992.77
2018-05-03T09:39:17.212Z,992.76
2018-05-03T09:40:17.368Z,992.69
2018-05-03T09:41:17.551Z,992.73
2018-05-03T09:42:17.784Z,992.75
2018-05-03T09:43:17.853Z,992.75
2018-05-03T09:44:18.041Z,992.75
2018-05-03T09:45:18.286Z,992.73
2018-05-03T09:46:18.359Z,992.80
2018-05-03T09:47:18.820Z,992.77
2018-05-03T09:48:18.768Z,993.02
2018-05-03T09:49:18.958Z,992.92
2018-05-03T09:50:19.141Z,992.99
2018-05-03T09:51:19.331Z,992.96
2018-05-03T09:52:19.533Z,992.96
2018-05-03T09:53:19.761Z,992.91
2018-05-03T09:54:19.964Z,992.97
2018-05-03T09:55:20.151Z,993.13
2018-05-03T09:56:20.354Z,992.99
2018-05-03T09:57:20.548Z,992.95
2018-05-03T09:58:20.731Z,992.96
2018-05-03T09:59:20.964Z,992.90
2018-05-03T10:00:21.166Z,992.84
2018-05-03T10:01:21.354Z,992.86
2018-05-03T10:02:21.538Z,992.85
2018-05-03T10:03:21.742Z,992.76
2018-05-03T10:04:21.920Z,992.77
2018-05-03T10:05:22.108Z,992.74
2018-05-03T10:06:22.314Z,992.77
2018-05-03T10:07:22.501Z,992.76
2018-05-03T10:08:22.696Z,992.78
2018-05-03T10:09:22.898Z,992.81
2018-05-03T10:10:23.238Z,992.81
2018-05-03T10:11:23.237Z,992.85
2018-05-03T10:12:23.424Z,992.85
2018-05-03T10:13:23.709Z,992.80
2018-05-03T10:14:23.813Z,992.81
2018-05-03T10:15:24.000Z,992.79
2018-05-03T10:16:24.186Z,992.76
2018-05-03T10:17:24.368Z,992.79
2018-05-03T10:18:24.546Z,992.82
2018-05-03T10:19:24.729Z,992.81
2018-05-03T10:20:24.921Z,992.74
2018-05-03T10:21:25.101Z,992.70
2018-05-03T10:22:25.287Z,992.69
2018-05-03T10:23:25.463Z,992.74
2018-05-03T10:24:25.650Z,992.74
2018-05-03T10:25:25.835Z,992.75
2018-05-03T10:26:26.014Z,992.73
2018-05-03T10:27:26.208Z,992.81
2018-05-03T10:28:26.380Z,992.84
2018-05-03T10:29:26.580Z,992.84
2018-05-03T10:30:26.782Z,992.82
2018-05-03T10:31:26.972Z,992.78
2018-05-03T10:32:27.452Z,992.76
2018-05-03T10:33:27.382Z,992.73
2018-05-03T10:34:27.557Z,992.77
2018-05-03T10:35:27.745Z,992.76
2018-05-03T10:36:27.932Z,992.67
2018-05-03T10:37:28.127Z,992.72
2018-05-03T10:38:28.344Z,992.68
2018-05-03T10:39:28.507Z,992.67
2018-05-03T10:40:28.687Z,992.67
2018-05-03T10:41:28.871Z,992.66
2018-05-03T10:42:29.050Z,992.67
2018-05-03T10:43:29.248Z,992.70
2018-05-03T10:44:29.447Z,992.73
2018-05-03T10:45:29.666Z,992.73
2018-05-03T10:46:29.851Z,992.77
2018-05-03T10:47:31.047Z,992.75
2018-05-03T10:48:30.227Z,992.78
2018-05-03T10:49:30.410Z,992.82
2018-05-03T10:50:30.595Z,992.82
2018-05-03T10:51:30.762Z,992.88
2018-05-03T10:52:30.963Z,992.81
2018-05-03T10:53:31.160Z,992.85
2018-05-03T10:54:31.367Z,992.85
2018-05-03T10:55:31.530Z,992.86
2018-05-03T10:56:31.709Z,992.90
2018-05-03T10:57:31.967Z,992.80
2018-05-03T10:58:32.285Z,992.82
2018-05-03T10:59:32.462Z,992.87
2018-05-03T11:00:32.566Z,992.89
2018-05-03T11:01:33.609Z,992.89
2018-05-03T11:02:32.938Z,992.78
2018-05-03T11:03:33.116Z,992.70
2018-05-03T11:04:33.301Z,992.77
2018-05-03T11:05:33.643Z,992.73
2018-05-03T11:06:33.709Z,992.70
2018-05-03T11:07:33.888Z,992.71
2018-05-03T11:08:34.043Z,992.66
2018-05-03T11:09:34.227Z,992.66
2018-05-03T11:10:34.409Z,992.66
2018-05-03T11:11:34.604Z,992.66
2018-05-03T11:12:34.774Z,992.70
2018-05-03T11:13:35.010Z,992.67
2018-05-03T11:14:35.280Z,992.66
2018-05-03T11:15:35.333Z,992.70
2018-05-03T11:16:35.602Z,992.68
2018-05-03T11:17:35.718Z,992.68
2018-05-03T11:18:36.026Z,992.67
2018-05-03T11:19:36.061Z,992.76
2018-05-03T11:20:36.333Z,992.85
2018-05-03T11:21:36.467Z,992.73
2018-05-03T11:22:37.077Z,992.71
2018-05-03T11:23:36.833Z,992.73
2018-05-03T11:24:37.045Z,992.80
2018-05-03T11:25:37.241Z,992.77
2018-05-03T11:26:37.646Z,992.73
2018-05-03T11:27:37.633Z,992.81
2018-05-03T11:28:37.675Z,992.69
2018-05-03T11:29:37.873Z,992.74
2018-05-03T11:30:38.071Z,992.74
2018-05-03T11:31:38.253Z,992.76
2018-05-03T11:32:38.448Z,992.73
2018-05-03T11:33:38.649Z,992.77
2018-05-03T11:34:38.820Z,992.77
2018-05-03T11:35:39.127Z,992.78
2018-05-03T11:36:39.213Z,992.78
2018-05-03T11:37:39.379Z,992.81
2018-05-03T11:38:39.572Z,992.78
2018-05-03T11:39:39.778Z,992.80
2018-05-03T11:40:39.978Z,992.80
2018-05-03T11:41:40.168Z,992.86
2018-05-03T11:42:40.496Z,992.86
2018-05-03T11:43:40.458Z,992.87
2018-05-03T11:44:40.766Z,992.87
2018-05-03T11:45:40.815Z,992.79
2018-05-03T11:46:41.013Z,992.78
2018-05-03T11:47:41.193Z,992.72
2018-05-03T11:48:41.411Z,992.71
2018-05-03T11:49:41.590Z,992.65
2018-05-03T11:50:41.787Z,992.69
2018-05-03T11:51:42.014Z,992.65
2018-05-03T11:52:43.019Z,992.65
2018-05-03T11:53:43.244Z,992.67
2018-05-03T11:54:42.610Z,992.69
2018-05-03T11:55:42.910Z,992.71
2018-05-03T11:56:42.950Z,992.69
2018-05-03T11:57:43.607Z,992.74
2018-05-03T11:58:43.583Z,992.75
2018-05-03T11:59:43.443Z,992.76
2018-05-03T12:00:43.617Z,992.79
2018-05-03T12:01:43.977Z,992.80
2018-05-03T12:02:44.043Z,992.79
2018-05-03T12:03:44.221Z,992.81
2018-05-03T12:04:44.432Z,992.83
2018-05-03T12:05:44.599Z,992.78
2018-05-03T12:06:44.815Z,992.81
2018-05-03T12:07:45.004Z,992.79
2018-05-03T12:08:45.185Z,992.77
2018-05-03T12:09:45.362Z,992.76
2018-05-03T12:10:45.550Z,992.72
2018-05-03T12:11:45.800Z,992.68
2018-05-03T12:12:46.332Z,992.70
2018-05-03T12:13:46.135Z,992.68
2018-05-03T12:14:46.335Z,992.63
2018-05-03T12:15:46.534Z,992.71
2018-05-03T12:16:46.724Z,992.71
2018-05-03T12:17:46.932Z,992.72
2018-05-03T12:18:47.118Z,992.71
2018-05-03T12:19:47.313Z,992.66
2018-05-03T12:20:47.500Z,992.69
2018-05-03T12:21:47.786Z,992.68
2018-05-03T12:22:47.825Z,992.69
2018-05-03T12:23:48.016Z,992.69
2018-05-03T12:24:48.197Z,992.68
2018-05-03T12:25:48.393Z,992.65
2018-05-03T12:26:48.566Z,992.66
2018-05-03T12:27:49.015Z,992.67
2018-05-03T12:28:48.864Z,992.72
2018-05-03T12:29:49.637Z,992.72
2018-05-03T12:30:51.210Z,992.73